ZXP03 EHEH-EHEH

Flight info

Callsign ZXP03
Flight time 1h 11m
Altitude 1000
Route VFR
Aircraft EC35/L-SBDGRY/S

Departure

Time 2026-04-30 13:19
Airport Eindhoven Airport (EHEH)

Arrival

Time 2026-04-30 14:30
Airport Eindhoven Airport (EHEH)
Time Latitude Longitude Altitude Speed Heading
2026-04-30 13:03 51.45421 5.37239 74 ft 0 kts 303°
2026-04-30 13:15 51.45378 5.37243 85 ft 15 kts 111°
2026-04-30 13:15 51.45333 5.37304 86 ft 4 kts 117°
2026-04-30 13:16 51.45298 5.37359 87 ft 7 kts 111°
2026-04-30 13:16 51.45253 5.37389 95 ft 12 kts 167°
2026-04-30 13:16 51.45144 5.37287 92 ft 20 kts 167°
2026-04-30 13:17 51.44986 5.37123 93 ft 12 kts 207°
2026-04-30 13:17 51.44927 5.37029 87 ft 13 kts 200°
2026-04-30 13:17 51.44763 5.37013 109 ft 16 kts 141°
2026-04-30 13:18 51.44671 5.37149 397 ft 35 kts 129°
2026-04-30 13:18 51.44040 5.38337 655 ft 98 kts 123°
2026-04-30 13:18 51.43619 5.39286 632 ft 109 kts 120°
2026-04-30 13:19 51.43324 5.40380 683 ft 107 kts 98°
2026-04-30 13:19 51.43321 5.41566 775 ft 110 kts 86°
2026-04-30 13:19 51.43361 5.42802 864 ft 111 kts 88°
2026-04-30 13:19 51.43329 5.44074 803 ft 114 kts 97°
2026-04-30 13:20 51.43076 5.45251 776 ft 114 kts 108°
2026-04-30 13:20 51.42713 5.46374 810 ft 111 kts 113°
2026-04-30 13:20 51.42446 5.47536 828 ft 112 kts 101°
2026-04-30 13:20 51.42287 5.48762 766 ft 113 kts 98°
2026-04-30 13:21 51.42146 5.49999 775 ft 113 kts 98°
2026-04-30 13:21 51.42027 5.51234 805 ft 113 kts 96°
2026-04-30 13:21 51.41932 5.52472 756 ft 111 kts 95°
2026-04-30 13:22 51.41817 5.54963 705 ft 114 kts 93°
2026-04-30 13:22 51.41794 5.56242 668 ft 117 kts 92°
2026-04-30 13:22 51.41820 5.58816 835 ft 111 kts 86°
2026-04-30 13:23 51.41868 5.60032 865 ft 108 kts 85°
2026-04-30 13:23 51.42108 5.62347 869 ft 105 kts 78°
2026-04-30 13:24 51.42281 5.64634 787 ft 103 kts 83°
2026-04-30 13:24 51.42391 5.66932 729 ft 104 kts 89°
2026-04-30 13:25 51.42215 5.69257 652 ft 106 kts 97°
2026-04-30 13:25 51.42067 5.71556 643 ft 102 kts 91°
2026-04-30 13:26 51.41939 5.75063 438 ft 102 kts 100°
2026-04-30 13:26 51.41632 5.77159 441 ft 97 kts 99°
2026-04-30 13:27 51.41089 5.79204 373 ft 98 kts 109°
2026-04-30 13:28 51.40198 5.82050 341 ft 97 kts 107°
2026-04-30 13:28 51.39689 5.84056 437 ft 95 kts 105°
2026-04-30 13:28 51.39601 5.84422 484 ft 96 kts 105°
2026-04-30 13:29 51.39175 5.86110 633 ft 101 kts 105°
2026-04-30 13:29 51.38611 5.88218 616 ft 107 kts 109°
2026-04-30 13:30 51.37799 5.91478 480 ft 105 kts 96°
2026-04-30 13:31 51.37717 5.93743 532 ft 97 kts 85°
2026-04-30 13:31 51.37760 5.97040 641 ft 99 kts 93°
2026-04-30 13:32 51.37178 5.99051 616 ft 105 kts 115°
2026-04-30 13:32 51.35952 6.00508 692 ft 108 kts 148°
2026-04-30 13:33 51.34770 6.01819 802 ft 104 kts 136°
2026-04-30 13:33 51.33604 6.03263 781 ft 110 kts 134°
2026-04-30 13:34 51.32970 6.03826 830 ft 103 kts 157°
2026-04-30 13:34 51.31054 6.05247 772 ft 108 kts 150°
2026-04-30 13:35 51.30372 6.05822 662 ft 112 kts 144°
2026-04-30 13:35 51.29639 6.07550 547 ft 97 kts 81°
2026-04-30 13:36 51.30394 6.08864 463 ft 87 kts 343°
2026-04-30 13:36 51.30980 6.08525 444 ft 94 kts 339°
2026-04-30 13:36 51.31462 6.08778 630 ft 53 kts 122°
2026-04-30 13:37 51.31219 6.09335 583 ft 62 kts 114°
2026-04-30 13:37 51.30929 6.10152 713 ft 19 kts 104°
2026-04-30 13:38 51.30940 6.10374 679 ft 2 kts 227°
2026-04-30 13:38 51.30852 6.10179 581 ft 41 kts 226°
2026-04-30 13:38 51.30486 6.08856 815 ft 73 kts 221°
2026-04-30 13:39 51.29758 6.07991 719 ft 64 kts 237°
2026-04-30 13:39 51.29392 6.07144 439 ft 30 kts 248°
2026-04-30 13:40 51.29434 6.06818 361 ft 30 kts 181°
2026-04-30 13:40 51.29442 6.06601 323 ft 9 kts 81°
2026-04-30 13:40 51.29404 6.06781 391 ft 42 kts 91°
2026-04-30 13:40 51.29477 6.07484 260 ft 77 kts 72°
2026-04-30 13:41 51.29668 6.08321 245 ft 82 kts 64°
2026-04-30 13:41 51.30047 6.08915 401 ft 76 kts 19°
2026-04-30 13:41 51.30631 6.08947 461 ft 97 kts
2026-04-30 13:41 51.31386 6.08884 497 ft 118 kts
2026-04-30 13:42 51.32215 6.08761 625 ft 122 kts
2026-04-30 13:42 51.33060 6.08565 813 ft 124 kts 358°
2026-04-30 13:42 51.34711 6.07969 1332 ft 109 kts 353°
2026-04-30 13:43 51.35368 6.07626 1704 ft 93 kts 350°
2026-04-30 13:43 51.35926 6.07236 1990 ft 81 kts 340°
2026-04-30 13:43 51.36352 6.06794 2089 ft 60 kts 335°
2026-04-30 13:43 51.36610 6.06437 2097 ft 40 kts 327°
2026-04-30 13:44 51.36743 6.06105 1923 ft 32 kts 319°
2026-04-30 13:44 51.36777 6.05795 1379 ft 24 kts 276°
2026-04-30 13:44 51.36738 6.05548 1222 ft 24 kts 307°
2026-04-30 13:44 51.36691 6.05278 1192 ft 30 kts
2026-04-30 13:45 51.36931 6.04298 1075 ft 61 kts 302°
2026-04-30 13:45 51.37161 6.03952 1148 ft 27 kts 60°
2026-04-30 13:45 51.37226 6.04175 1074 ft 41 kts 93°
2026-04-30 13:46 51.37060 6.04779 869 ft 81 kts 128°
2026-04-30 13:46 51.36534 6.05511 547 ft 115 kts 138°
2026-04-30 13:46 51.35934 6.06366 595 ft 114 kts 129°
2026-04-30 13:46 51.35311 6.07149 670 ft 117 kts 142°
2026-04-30 13:47 51.34477 6.07385 722 ft 129 kts 172°
2026-04-30 13:47 51.33607 6.06903 753 ft 138 kts 198°
2026-04-30 13:47 51.32843 6.06013 895 ft 133 kts 206°
2026-04-30 13:47 51.32054 6.05452 1059 ft 118 kts 185°
2026-04-30 13:48 51.31292 6.05529 1224 ft 106 kts 154°
2026-04-30 13:48 51.30743 6.06221 1425 ft 100 kts 122°
2026-04-30 13:48 51.30640 6.07282 1720 ft 103 kts 78°
2026-04-30 13:48 51.31162 6.07979 1974 ft 102 kts 13°
2026-04-30 13:49 51.31846 6.07634 1623 ft 111 kts 332°
2026-04-30 13:49 51.32545 6.06915 1382 ft 124 kts 327°
2026-04-30 13:49 51.33149 6.06140 1235 ft 99 kts 318°
2026-04-30 13:49 51.33520 6.05536 1201 ft 61 kts 317°
2026-04-30 13:50 51.33722 6.05154 1072 ft 33 kts 325°
2026-04-30 13:50 51.33785 6.04644 755 ft 26 kts 94°
2026-04-30 13:50 51.33893 6.04651 736 ft 27 kts 96°
2026-04-30 13:51 51.33629 6.05104 659 ft 79 kts 134°
2026-04-30 13:51 51.33153 6.05702 588 ft 94 kts 131°
2026-04-30 13:51 51.32674 6.06434 555 ft 94 kts 125°
2026-04-30 13:51 51.32294 6.07188 684 ft 84 kts 119°
2026-04-30 13:52 51.32000 6.07946 791 ft 78 kts 125°
2026-04-30 13:52 51.31720 6.08693 814 ft 78 kts 131°
2026-04-30 13:52 51.31370 6.09357 823 ft 78 kts 123°
2026-04-30 13:52 51.31069 6.09881 857 ft 43 kts 113°
2026-04-30 13:53 51.30951 6.10071 740 ft 12 kts 73°
2026-04-30 13:53 51.30891 6.10143 638 ft 16 kts 48°
2026-04-30 13:53 51.30864 6.10257 338 ft 8 kts 37°
2026-04-30 13:53 51.30893 6.10259 147 ft 8 kts 41°
2026-04-30 13:54 51.30900 6.10284 69 ft 4 kts 26°
2026-04-30 13:54 51.30904 6.10274 411 ft 8 kts 338°
2026-04-30 13:54 51.31083 6.10028 763 ft 69 kts 316°
2026-04-30 13:54 51.31515 6.09068 699 ft 134 kts 306°
2026-04-30 13:55 51.32023 6.07828 500 ft 132 kts 304°
2026-04-30 13:55 51.32507 6.06775 531 ft 100 kts 311°
2026-04-30 13:55 51.32824 6.06219 632 ft 28 kts 329°
2026-04-30 13:55 51.32891 6.05990 645 ft 15 kts 139°
2026-04-30 13:56 51.32840 6.06110 646 ft 51 kts 129°
2026-04-30 13:56 51.32658 6.06670 862 ft 45 kts 104°
2026-04-30 13:56 51.32411 6.07141 995 ft 73 kts 137°
2026-04-30 13:56 51.31828 6.07415 948 ft 100 kts 158°
2026-04-30 13:57 51.31072 6.07453 829 ft 119 kts 179°
2026-04-30 13:57 51.30261 6.07124 696 ft 115 kts 173°
2026-04-30 13:57 51.29618 6.07296 743 ft 74 kts 129°
2026-04-30 13:57 51.29537 6.07831 517 ft 39 kts 75°
2026-04-30 13:58 51.29617 6.08076 262 ft 7 kts 66°
2026-04-30 13:58 51.29616 6.08102 162 ft 8 kts 97°
2026-04-30 13:58 51.29784 6.08445 295 ft 70 kts 53°
2026-04-30 13:59 51.30297 6.08810 531 ft 96 kts 352°
2026-04-30 13:59 51.30978 6.08337 511 ft 118 kts 350°
2026-04-30 13:59 51.31774 6.08133 668 ft 114 kts
2026-04-30 13:59 51.32544 6.07903 874 ft 108 kts 332°
2026-04-30 14:00 51.32898 6.07243 874 ft 59 kts 261°
2026-04-30 14:00 51.32837 6.06023 478 ft 49 kts 263°
2026-04-30 14:00 51.32809 6.05559 486 ft 53 kts 211°
2026-04-30 14:01 51.32321 6.05253 502 ft 97 kts 188°
2026-04-30 14:01 51.31579 6.04920 421 ft 120 kts 183°
2026-04-30 14:01 51.30741 6.04655 389 ft 124 kts 177°
2026-04-30 14:01 51.29896 6.04486 444 ft 118 kts 174°
2026-04-30 14:02 51.29199 6.04677 674 ft 86 kts 124°
2026-04-30 14:02 51.29013 6.05404 520 ft 65 kts 83°
2026-04-30 14:02 51.29074 6.06018 272 ft 44 kts 68°
2026-04-30 14:02 51.29156 6.06250 122 ft 9 kts 76°
2026-04-30 14:03 51.29167 6.06295 94 ft 17 kts 101°
2026-04-30 14:03 51.29344 6.06758 238 ft 78 kts 58°
2026-04-30 14:03 51.29932 6.07145 489 ft 108 kts 14°
2026-04-30 14:03 51.30706 6.07304 634 ft 117 kts 18°
2026-04-30 14:04 51.31519 6.07641 742 ft 123 kts 22°
2026-04-30 14:04 51.32324 6.07790 978 ft 104 kts 337°
2026-04-30 14:04 51.32672 6.07010 885 ft 82 kts 278°
2026-04-30 14:04 51.32792 6.06260 489 ft 59 kts 276°
2026-04-30 14:05 51.32886 6.05652 592 ft 58 kts 276°
2026-04-30 14:05 51.32462 6.05385 529 ft 81 kts 162°
2026-04-30 14:05 51.31876 6.05610 583 ft 92 kts 150°
2026-04-30 14:05 51.31278 6.06047 597 ft 97 kts 140°
2026-04-30 14:06 51.30725 6.06672 629 ft 98 kts 130°
2026-04-30 14:06 51.29909 6.08317 625 ft 85 kts 87°
2026-04-30 14:07 51.30175 6.09172 213 ft 17 kts 47°
2026-04-30 14:07 51.30189 6.09174 110 ft 5 kts 65°
2026-04-30 14:07 51.30161 6.09188 76 ft 7 kts 34°
2026-04-30 14:08 51.30182 6.09260 362 ft 67 kts 50°
2026-04-30 14:08 51.30547 6.09763 210 ft 65 kts 45°
2026-04-30 14:08 51.30853 6.10093 81 ft 3 kts 106°
2026-04-30 14:09 51.30820 6.10174 75 ft 6 kts 107°
2026-04-30 14:09 51.30809 6.10250 119 ft 13 kts 107°
2026-04-30 14:09 51.30823 6.09256 611 ft 108 kts 321°
2026-04-30 14:10 51.31409 6.08378 801 ft 124 kts 321°
2026-04-30 14:10 51.32056 6.07378 811 ft 130 kts 317°
2026-04-30 14:10 51.32645 6.06457 724 ft 94 kts 316°
2026-04-30 14:10 51.32908 6.05892 567 ft 49 kts 21°
2026-04-30 14:11 51.33029 6.05620 375 ft 3 kts 131°
2026-04-30 14:11 51.32933 6.05837 412 ft 38 kts 109°
2026-04-30 14:11 51.32839 6.06263 305 ft 45 kts 92°
2026-04-30 14:11 51.32847 6.06819 342 ft 55 kts 95°
2026-04-30 14:12 51.32734 6.07436 392 ft 61 kts 96°
2026-04-30 14:12 51.32941 6.08055 383 ft 72 kts 48°
2026-04-30 14:12 51.33477 6.08209 362 ft 88 kts
2026-04-30 14:12 51.33861 6.07919 340 ft 97 kts 330°
2026-04-30 14:13 51.34350 6.06660 360 ft 102 kts 286°
2026-04-30 14:13 51.34362 6.05606 482 ft 90 kts 254°
2026-04-30 14:13 51.34131 6.04746 663 ft 80 kts 230°
2026-04-30 14:13 51.33852 6.04036 859 ft 75 kts 222°
2026-04-30 14:14 51.33600 6.03313 979 ft 75 kts 256°
2026-04-30 14:14 51.33560 6.02399 986 ft 93 kts 274°
2026-04-30 14:14 51.33713 6.01316 979 ft 102 kts 281°
2026-04-30 14:14 51.33879 6.00214 1019 ft 101 kts 278°
2026-04-30 14:15 51.34014 5.99111 1005 ft 101 kts 276°
2026-04-30 14:15 51.34119 5.98008 970 ft 100 kts 272°
2026-04-30 14:15 51.34193 5.96900 925 ft 100 kts 268°
2026-04-30 14:15 51.34295 5.95807 914 ft 102 kts 278°
2026-04-30 14:16 51.34573 5.94758 862 ft 103 kts 298°
2026-04-30 14:16 51.34919 5.93745 806 ft 104 kts 298°
2026-04-30 14:16 51.35272 5.92734 734 ft 105 kts 300°
2026-04-30 14:16 51.35633 5.91718 714 ft 105 kts 302°
2026-04-30 14:17 51.35999 5.90710 663 ft 105 kts 302°
2026-04-30 14:17 51.36365 5.89712 601 ft 102 kts 300°
2026-04-30 14:17 51.36583 5.88688 605 ft 94 kts 277°
2026-04-30 14:17 51.36572 5.87691 663 ft 87 kts 253°
2026-04-30 14:18 51.36372 5.86821 801 ft 84 kts 242°
2026-04-30 14:18 51.36319 5.85916 843 ft 82 kts 271°
2026-04-30 14:18 51.36582 5.84058 853 ft 103 kts 287°
2026-04-30 14:19 51.37243 5.81531 862 ft 137 kts 297°
2026-04-30 14:19 51.37674 5.80146 865 ft 140 kts 296°
2026-04-30 14:19 51.38083 5.78732 859 ft 141 kts 291°
2026-04-30 14:20 51.38415 5.77284 880 ft 136 kts 286°
2026-04-30 14:20 51.38743 5.75866 856 ft 136 kts 289°
2026-04-30 14:20 51.39376 5.73025 860 ft 132 kts 288°
2026-04-30 14:21 51.39685 5.71676 858 ft 126 kts 288°
2026-04-30 14:21 51.39976 5.70366 860 ft 124 kts 289°
2026-04-30 14:21 51.40523 5.67779 859 ft 122 kts 288°
2026-04-30 14:22 51.40800 5.66495 863 ft 121 kts 288°
2026-04-30 14:22 51.41298 5.63951 858 ft 121 kts 283°
2026-04-30 14:22 51.41520 5.62651 850 ft 121 kts 283°
2026-04-30 14:23 51.41880 5.60030 792 ft 118 kts 269°
2026-04-30 14:23 51.42730 5.58250 514 ft 95 kts 13°
2026-04-30 14:24 51.42742 5.59652 541 ft 101 kts 148°
2026-04-30 14:24 51.42012 5.59976 582 ft 116 kts 159°
2026-04-30 14:25 51.40437 5.60597 934 ft 118 kts 151°
2026-04-30 14:25 51.39058 5.61962 1090 ft 114 kts 130°
2026-04-30 14:26 51.37596 5.61267 1077 ft 151 kts 240°
2026-04-30 14:26 51.37236 5.59755 1109 ft 141 kts 241°
2026-04-30 14:26 51.36204 5.57485 1180 ft 115 kts 202°
2026-04-30 14:27 51.35556 5.56763 1097 ft 112 kts 200°
2026-04-30 14:27 51.34908 5.56098 984 ft 110 kts 196°
2026-04-30 14:27 51.34260 5.55460 858 ft 112 kts 202°
2026-04-30 14:28 51.33316 5.53643 920 ft 99 kts 215°
2026-04-30 14:28 51.32866 5.52863 988 ft 92 kts 209°
2026-04-30 14:28 51.32402 5.52203 1046 ft 85 kts 197°
2026-04-30 14:28 51.31895 5.51895 1058 ft 72 kts 165°
2026-04-30 14:29 51.31715 5.52089 1206 ft 54 kts
2026-04-30 14:29 51.32336 5.51660 1133 ft 55 kts
2026-04-30 14:30 51.32534 5.52271 1032 ft 46 kts 145°
2026-04-30 14:31 51.32039 5.52689 451 ft 45 kts 108°
2026-04-30 14:31 51.31924 5.53017 99 ft 1 kts 109°
2026-04-30 14:31 51.31923 5.53019 92 ft 0 kts 110°
2026-04-30 14:32 51.32035 5.52704 221 ft 76 kts 308°
2026-04-30 14:32 51.32358 5.51829 451 ft 101 kts 292°
2026-04-30 14:33 51.32405 5.50626 574 ft 117 kts 262°
2026-04-30 14:33 51.32168 5.47833 653 ft 134 kts 260°
2026-04-30 14:33 51.32252 5.46337 745 ft 137 kts 279°
2026-04-30 14:34 51.32593 5.44922 850 ft 137 kts 298°
2026-04-30 14:34 51.33166 5.43735 958 ft 133 kts 318°
2026-04-30 14:34 51.33860 5.42775 1089 ft 132 kts 322°
2026-04-30 14:34 51.34631 5.42024 1177 ft 129 kts 347°
2026-04-30 14:35 51.36006 5.42206 1349 ft 114 kts 22°
2026-04-30 14:35 51.36944 5.42689 1287 ft 101 kts 28°
2026-04-30 14:35 51.37617 5.43031 1071 ft 104 kts 22°
2026-04-30 14:36 51.38346 5.43209 956 ft 108 kts 17°
2026-04-30 14:36 51.39105 5.43279 897 ft 114 kts 10°
2026-04-30 14:36 51.39906 5.43263 765 ft 116 kts
2026-04-30 14:36 51.40687 5.43115 750 ft 111 kts 360°
2026-04-30 14:37 51.41435 5.42888 800 ft 111 kts 359°
2026-04-30 14:37 51.42212 5.42725 697 ft 114 kts 358°
2026-04-30 14:37 51.43006 5.42637 598 ft 115 kts
2026-04-30 14:37 51.43792 5.42641 544 ft 110 kts
2026-04-30 14:38 51.44492 5.42440 740 ft 99 kts 342°
2026-04-30 14:38 51.44899 5.41603 867 ft 98 kts 287°
2026-04-30 14:38 51.44953 5.40524 946 ft 96 kts 258°
2026-04-30 14:38 51.44859 5.39413 951 ft 107 kts 253°
2026-04-30 14:39 51.44741 5.38207 805 ft 105 kts 254°
2026-04-30 14:39 51.44722 5.37322 553 ft 48 kts 252°
2026-04-30 14:39 51.44767 5.37167 301 ft 5 kts 236°
2026-04-30 14:40 51.44767 5.36916 110 ft 10 kts 90°
2026-04-30 14:40 51.44791 5.36961 93 ft 2 kts 98°
2026-04-30 14:40 51.44792 5.36969 71 ft 0 kts 99°
2026-04-30 14:41 51.44791 5.36971 84 ft 1 kts 42°
2026-04-30 14:41 51.44860 5.37001 95 ft 13 kts 43°
2026-04-30 14:41 51.44935 5.37074 92 ft 12 kts 51°
2026-04-30 14:41 51.45003 5.37154 86 ft 14 kts 56°
2026-04-30 14:42 51.45090 5.37264 84 ft 18 kts 36°
2026-04-30 14:42 51.45185 5.37355 91 ft 14 kts 54°
2026-04-30 14:42 51.45267 5.37426 92 ft 14 kts 332°
2026-04-30 14:42 51.45335 5.37280 81 ft 14 kts 337°
2026-04-30 14:43 51.45379 5.37239 83 ft 6 kts 81°
2026-04-30 14:43 51.45384 5.37314 86 ft 6 kts 122°
2026-04-30 14:43 51.45386 5.37310 68 ft 2 kts 123°
2026-04-30 14:43 51.45386 5.37316 84 ft 2 kts 121°
2026-04-30 14:44 51.45366 5.37328 94 ft 3 kts 43°
2026-04-30 14:44 51.45385 5.37350 82 ft 3 kts 285°